createdAt,value
2024-04-18T00:00:32.328Z,3.1861
2024-04-18T00:01:36.037Z,3.2555
2024-04-18T00:02:39.786Z,3.2128
2024-04-18T00:03:43.568Z,3.1567
2024-04-18T00:04:47.334Z,3.1300
2024-04-18T00:05:50.887Z,3.1567
2024-04-18T00:06:54.486Z,3.1434
2024-04-18T00:07:58.039Z,3.1300
2024-04-18T00:09:01.589Z,3.0873
2024-04-18T00:10:05.126Z,3.1006
2024-04-18T00:11:09.757Z,3.1567
2024-04-18T00:12:13.387Z,3.2128
2024-04-18T00:13:16.951Z,3.3410
2024-04-18T00:14:20.634Z,3.3249
2024-04-18T00:15:24.199Z,3.2982
2024-04-18T00:16:27.936Z,3.2849
2024-04-18T00:17:31.830Z,3.3249
2024-04-18T00:18:35.506Z,3.2849
2024-04-18T00:19:39.194Z,3.2422
2024-04-18T00:20:42.882Z,3.2288
2024-04-18T00:21:46.756Z,3.3410
2024-04-18T00:22:50.353Z,3.2689
2024-04-18T00:23:53.982Z,3.2849
2024-04-18T00:24:57.667Z,3.2849
2024-04-18T00:26:01.290Z,3.2288
2024-04-18T00:27:05.003Z,3.1994
2024-04-18T00:28:09.194Z,3.1861
2024-04-18T00:29:12.878Z,3.1567
2024-04-18T00:30:16.565Z,3.2288
2024-04-18T00:31:20.723Z,3.3677
2024-04-18T00:32:24.401Z,3.2422
2024-04-18T00:33:28.110Z,3.2689
2024-04-18T00:34:31.751Z,3.2288
2024-04-18T00:35:35.282Z,3.2422
2024-04-18T00:36:39.159Z,3.2128
2024-04-18T00:37:42.761Z,3.2128
2024-04-18T00:38:46.259Z,3.3249
2024-04-18T00:39:49.848Z,3.3116
2024-04-18T00:40:53.335Z,3.2982
2024-04-18T00:41:56.867Z,3.2689
2024-04-18T00:43:00.546Z,3.2849
2024-04-18T00:44:04.458Z,3.2849
2024-04-18T00:45:08.310Z,3.3837
2024-04-18T00:46:12.096Z,3.3116
2024-04-18T00:47:15.747Z,3.2689
2024-04-18T00:48:19.496Z,3.2128
2024-04-18T00:49:23.329Z,3.1727
2024-04-18T00:50:27.065Z,3.1140
2024-04-18T00:51:30.761Z,3.1434
2024-04-18T00:52:34.494Z,3.1727
2024-04-18T00:53:38.128Z,3.1434
2024-04-18T00:54:41.785Z,3.2128
2024-04-18T00:55:45.401Z,3.1727
2024-04-18T00:56:49.207Z,3.1727
2024-04-18T00:57:52.862Z,3.2288
2024-04-18T00:58:56.423Z,3.1994
2024-04-18T01:00:00.096Z,3.1567
2024-04-18T01:01:03.907Z,3.1727
2024-04-18T01:02:07.811Z,3.1300
2024-04-18T01:03:11.355Z,3.1300
2024-04-18T01:04:15.140Z,3.1861
2024-04-18T01:05:18.877Z,3.1434
2024-04-18T01:06:22.464Z,3.1994
2024-04-18T01:07:26.084Z,3.1727
2024-04-18T01:08:29.599Z,3.2689
2024-04-18T01:09:33.231Z,3.1994
2024-04-18T01:10:36.853Z,3.1994
2024-04-18T01:11:40.561Z,3.1861
2024-04-18T01:12:44.267Z,3.1994
2024-04-18T01:13:47.999Z,3.1567
2024-04-18T01:14:51.639Z,3.2128
2024-04-18T01:15:55.285Z,3.2288
2024-04-18T01:16:58.986Z,3.2128
2024-04-18T01:18:02.882Z,3.1994
2024-04-18T01:19:06.523Z,3.2128
2024-04-18T01:20:10.274Z,3.2128
2024-04-18T01:21:13.881Z,3.2128
2024-04-18T01:22:17.568Z,3.2689
2024-04-18T01:23:21.227Z,3.2849
2024-04-18T01:24:24.909Z,3.2849
2024-04-18T01:25:31.181Z,3.2422
2024-04-18T01:26:34.825Z,3.2689
2024-04-18T01:27:38.442Z,3.2849
2024-04-18T01:28:42.002Z,3.2982
2024-04-18T01:29:45.813Z,3.3410
2024-04-18T01:30:49.656Z,3.3410
2024-04-18T01:31:54.088Z,3.2689
2024-04-18T01:32:57.691Z,3.2689
2024-04-18T01:34:01.514Z,3.2689
2024-04-18T01:35:05.197Z,3.2982
2024-04-18T01:36:08.812Z,3.3116
2024-04-18T01:37:12.414Z,3.3116
2024-04-18T01:38:16.146Z,3.2689
2024-04-18T01:39:20.678Z,3.3116
2024-04-18T01:40:24.388Z,3.2689
2024-04-18T01:41:28.042Z,3.2288
2024-04-18T01:42:31.697Z,3.3543
2024-04-18T01:43:35.295Z,3.3116
2024-04-18T01:44:38.946Z,3.2982
2024-04-18T01:45:42.671Z,3.2849
2024-04-18T01:46:46.384Z,3.3249
2024-04-18T01:47:50.150Z,3.2849
2024-04-18T01:48:53.883Z,3.2982
2024-04-18T01:49:58.169Z,3.3543
2024-04-18T01:51:01.869Z,3.3543
2024-04-18T01:52:05.480Z,3.3410
2024-04-18T01:53:09.222Z,3.3543
2024-04-18T01:54:12.834Z,3.3410
2024-04-18T01:55:16.363Z,3.3543
2024-04-18T01:56:19.916Z,3.3543
2024-04-18T01:57:23.506Z,3.3249
2024-04-18T01:58:27.158Z,3.3677
2024-04-18T01:59:30.845Z,3.2849
2024-04-18T02:00:34.665Z,3.2982
2024-04-18T02:01:38.394Z,3.2982
2024-04-18T02:02:41.985Z,3.2849
2024-04-18T02:03:45.793Z,3.2555
2024-04-18T02:04:49.584Z,3.2288
2024-04-18T02:05:53.188Z,3.2982
2024-04-18T02:06:56.810Z,3.1994
2024-04-18T02:08:00.490Z,3.1861
2024-04-18T02:09:04.191Z,3.2128
2024-04-18T02:10:07.809Z,3.2288
2024-04-18T02:11:11.513Z,3.2288
2024-04-18T02:12:15.272Z,3.2128
2024-04-18T02:13:18.972Z,3.2689
2024-04-18T02:14:22.758Z,3.2982
2024-04-18T02:15:26.423Z,3.2689
2024-04-18T02:16:30.133Z,3.1861
2024-04-18T02:17:34.742Z,3.1994
2024-04-18T02:18:40.268Z,3.2128
2024-04-18T02:19:43.920Z,3.1434
2024-04-18T02:20:47.512Z,3.1727
2024-04-18T02:21:51.109Z,3.1861
2024-04-18T02:22:54.670Z,3.1434
2024-04-18T02:23:58.225Z,3.2288
2024-04-18T02:25:01.802Z,3.1567
2024-04-18T02:26:05.338Z,3.1006
2024-04-18T02:27:08.942Z,3.1434
2024-04-18T02:28:12.491Z,3.1434
2024-04-18T02:29:16.127Z,3.1300
2024-04-18T02:30:20.863Z,3.0739
2024-04-18T02:31:25.707Z,3.1006
2024-04-18T02:32:29.457Z,3.0739
2024-04-18T02:33:33.298Z,3.0446
2024-04-18T02:34:36.952Z,2.9751
2024-04-18T02:35:40.618Z,3.0312
2024-04-18T02:36:44.385Z,2.9885
2024-04-18T02:37:48.177Z,3.0018
2024-04-18T02:38:54.706Z,2.9591
2024-04-18T02:39:58.437Z,2.9458
2024-04-18T02:41:02.149Z,2.9885
2024-04-18T02:42:05.820Z,2.9885
2024-04-18T02:43:09.518Z,3.0018
2024-04-18T02:44:13.221Z,3.0178
2024-04-18T02:45:16.818Z,2.9030
2024-04-18T02:46:21.099Z,2.9591
2024-04-18T02:47:24.702Z,2.9030
2024-04-18T02:48:28.445Z,2.9030
2024-04-18T02:49:32.151Z,2.9190
2024-04-18T02:50:35.719Z,2.9324
2024-04-18T02:51:39.265Z,2.8630
2024-04-18T02:52:42.850Z,2.8630
2024-04-18T02:53:46.398Z,2.9324
2024-04-18T02:54:50.107Z,2.8897
2024-04-18T02:55:53.723Z,2.9885
2024-04-18T02:56:57.306Z,2.9751
2024-04-18T02:58:01.021Z,2.8630
2024-04-18T02:59:04.650Z,2.8336
2024-04-18T03:00:09.803Z,2.9030
2024-04-18T03:01:13.474Z,2.8763
2024-04-18T03:02:17.230Z,2.9324
2024-04-18T03:03:20.857Z,2.7909
2024-04-18T03:04:24.543Z,2.8630
2024-04-18T03:05:28.191Z,2.9030
2024-04-18T03:06:31.864Z,2.9190
2024-04-18T03:07:35.495Z,2.9324
2024-04-18T03:08:39.756Z,2.8470
2024-04-18T03:09:43.543Z,2.7775
2024-04-18T03:10:47.222Z,2.8336
2024-04-18T03:11:50.760Z,2.8336
2024-04-18T03:12:57.115Z,2.8202
2024-04-18T03:14:00.645Z,2.7642
2024-04-18T03:15:04.442Z,2.8897
2024-04-18T03:16:08.041Z,2.8202
2024-04-18T03:17:11.760Z,2.8336
2024-04-18T03:18:15.626Z,2.8069
2024-04-18T03:19:19.576Z,2.7481
2024-04-18T03:20:25.289Z,2.7775
2024-04-18T03:21:28.993Z,2.7348
2024-04-18T03:22:32.581Z,2.7642
2024-04-18T03:23:36.118Z,2.5212
2024-04-18T03:24:39.686Z,2.5505
2024-04-18T03:25:43.685Z,2.5772
2024-04-18T03:26:48.147Z,2.4784
2024-04-18T03:27:52.780Z,2.4784
2024-04-18T03:28:56.452Z,2.2835
2024-04-18T03:30:00.103Z,2.2969
2024-04-18T03:31:04.827Z,2.2969
2024-04-18T03:32:09.258Z,2.2541
2024-04-18T03:33:13.816Z,2.3102
2024-04-18T03:34:17.556Z,2.3663
2024-04-18T03:35:21.288Z,2.1553
2024-04-18T03:36:24.882Z,2.1981
2024-04-18T03:37:28.407Z,2.1553
2024-04-18T03:38:32.000Z,2.1847
2024-04-18T03:39:35.665Z,2.0859
2024-04-18T03:40:39.666Z,2.1126
2024-04-18T03:41:44.209Z,2.0859
2024-04-18T03:42:47.930Z,2.0165
2024-04-18T03:43:53.583Z,2.1126
2024-04-18T03:44:58.303Z,1.9871
2024-04-18T03:46:02.029Z,2.0726
2024-04-18T03:47:05.713Z,2.0993
2024-04-18T03:48:09.373Z,2.0298
2024-04-18T03:49:13.131Z,2.0165
2024-04-18T03:50:16.646Z,2.0298
2024-04-18T03:51:20.283Z,2.0165
2024-04-18T03:52:24.659Z,2.0565
2024-04-18T03:53:28.247Z,2.0565
2024-04-18T03:54:39.843Z,2.0726
2024-04-18T03:55:42.432Z,2.0565
2024-04-18T03:56:46.099Z,2.1286
2024-04-18T03:57:49.770Z,2.0726
2024-04-18T03:58:53.433Z,2.1286
2024-04-18T03:59:56.966Z,2.0565
2024-04-18T04:01:00.817Z,2.1286
2024-04-18T04:02:04.538Z,2.3236
2024-04-18T04:03:08.125Z,2.2969
2024-04-18T04:04:11.877Z,2.2675
2024-04-18T04:05:15.597Z,2.2835
2024-04-18T04:06:19.329Z,2.0993
2024-04-18T04:07:22.966Z,2.1420
2024-04-18T04:08:26.667Z,2.1126
2024-04-18T04:09:30.454Z,2.1420
2024-04-18T04:10:34.044Z,2.1420
2024-04-18T04:11:37.747Z,2.0298
2024-04-18T04:12:41.491Z,2.0165
2024-04-18T04:13:45.083Z,2.0859
2024-04-18T04:14:48.801Z,1.9738
2024-04-18T04:15:52.703Z,2.0565
2024-04-18T04:16:56.439Z,2.1420
2024-04-18T04:18:00.093Z,2.1687
2024-04-18T04:19:03.775Z,2.0993
2024-04-18T04:20:07.504Z,2.0298
2024-04-18T04:21:11.201Z,2.1420
2024-04-18T04:22:15.808Z,2.1286
2024-04-18T04:23:19.423Z,2.1420
2024-04-18T04:24:23.114Z,2.0432
2024-04-18T04:25:26.764Z,1.9177
2024-04-18T04:26:30.551Z,1.9017
2024-04-18T04:27:34.159Z,2.0565
2024-04-18T04:28:37.808Z,1.9177
2024-04-18T04:29:41.393Z,2.0859
2024-04-18T04:30:45.106Z,2.1687
2024-04-18T04:31:48.938Z,2.2114
2024-04-18T04:32:52.664Z,2.2541
2024-04-18T04:33:57.345Z,2.1420
2024-04-18T04:35:00.971Z,2.1847
2024-04-18T04:36:04.613Z,2.0726
2024-04-18T04:37:08.267Z,2.0565
2024-04-18T04:38:11.923Z,1.9871
2024-04-18T04:39:15.655Z,1.8723
2024-04-18T04:40:19.484Z,1.9177
2024-04-18T04:41:23.053Z,1.8029
2024-04-18T04:42:26.777Z,1.7174
2024-04-18T04:43:30.373Z,1.8296
2024-04-18T04:44:34.096Z,1.7735
2024-04-18T04:45:37.840Z,1.6747
2024-04-18T04:46:41.497Z,1.7735
2024-04-18T04:47:45.182Z,1.7601
2024-04-18T04:48:48.825Z,1.7441
2024-04-18T04:49:52.424Z,1.6320
2024-04-18T04:50:56.049Z,1.5331
2024-04-18T04:51:59.640Z,1.4076
2024-04-18T04:53:03.752Z,1.4504
2024-04-18T04:54:07.506Z,1.4504
2024-04-18T04:55:11.129Z,1.5331
2024-04-18T04:56:14.719Z,1.3516
2024-04-18T04:57:18.344Z,1.3382
2024-04-18T04:58:21.947Z,1.3382
2024-04-18T04:59:25.465Z,1.2528
2024-04-18T05:00:29.173Z,1.3088
2024-04-18T05:01:32.932Z,1.2394
2024-04-18T05:02:39.191Z,1.2394
2024-04-18T05:03:43.811Z,1.2261
2024-04-18T05:04:47.626Z,1.1833
2024-04-18T05:05:51.258Z,1.2955
2024-04-18T05:06:55.016Z,1.1406
2024-04-18T05:07:58.699Z,1.0391
2024-04-18T05:09:02.415Z,1.0952
2024-04-18T05:10:06.120Z,1.1673
2024-04-18T05:11:09.840Z,1.1112
2024-04-18T05:12:13.525Z,1.1112
2024-04-18T05:13:17.218Z,1.0819
2024-04-18T05:14:20.966Z,1.0391
2024-04-18T05:15:25.208Z,0.9537
2024-04-18T05:16:28.846Z,0.7988
2024-04-18T05:17:32.349Z,0.7988
2024-04-18T05:18:35.978Z,0.8148
2024-04-18T05:19:39.681Z,0.8148
2024-04-18T05:20:43.310Z,0.7027
2024-04-18T05:21:47.013Z,0.7588
2024-04-18T05:22:50.708Z,0.7027
2024-04-18T05:23:54.223Z,0.7294
2024-04-18T05:24:57.930Z,0.7294
2024-04-18T05:26:02.348Z,0.6466
2024-04-18T05:27:06.004Z,0.7588
2024-04-18T05:28:09.699Z,0.7160
2024-04-18T05:29:13.415Z,0.6466
2024-04-18T05:30:17.110Z,0.5745
2024-04-18T05:31:21.252Z,0.5879
2024-04-18T05:32:25.077Z,0.6039
2024-04-18T05:33:28.738Z,0.5745
2024-04-18T05:34:32.743Z,0.6306
2024-04-18T05:35:36.429Z,0.6306
2024-04-18T05:36:40.205Z,0.6733
2024-04-18T05:37:43.837Z,0.6600
2024-04-18T05:38:47.520Z,0.6600
2024-04-18T05:39:51.306Z,0.6306
2024-04-18T05:40:55.189Z,0.6306
2024-04-18T05:41:58.846Z,0.5478
2024-04-18T05:43:02.503Z,0.5611
2024-04-18T05:44:06.192Z,0.5879
2024-04-18T05:45:13.158Z,0.5478
2024-04-18T05:46:16.721Z,0.5611
2024-04-18T05:47:20.483Z,0.5318
2024-04-18T05:48:24.208Z,0.5184
2024-04-18T05:49:27.818Z,0.5318
2024-04-18T05:50:31.713Z,0.5611
2024-04-18T05:51:35.395Z,0.5318
2024-04-18T05:52:39.090Z,0.5611
2024-04-18T05:53:43.296Z,0.5478
2024-04-18T05:54:47.119Z,0.4356
2024-04-18T05:55:50.811Z,0.4917
2024-04-18T05:56:54.489Z,0.5611
2024-04-18T05:57:58.244Z,0.5611
2024-04-18T05:59:01.980Z,0.5184
2024-04-18T06:00:05.645Z,0.4917
2024-04-18T06:01:10.439Z,0.4757
2024-04-18T06:02:14.124Z,0.4196
2024-04-18T06:03:17.859Z,0.3929
2024-04-18T06:04:21.539Z,0.5051
2024-04-18T06:05:25.166Z,0.4490
2024-04-18T06:06:28.978Z,0.4623
2024-04-18T06:07:32.614Z,0.4917
2024-04-18T06:08:36.325Z,0.4623
2024-04-18T06:09:42.851Z,0.4757
2024-04-18T06:10:46.530Z,0.4356
2024-04-18T06:11:50.111Z,0.4356
2024-04-18T06:12:53.780Z,0.4356
2024-04-18T06:13:57.395Z,0.4356
2024-04-18T06:15:01.075Z,0.4063
2024-04-18T06:16:04.902Z,0.4356
2024-04-18T06:17:08.523Z,0.4623
2024-04-18T06:18:12.107Z,0.4623
2024-04-18T06:19:15.669Z,0.5184
2024-04-18T06:20:19.352Z,0.5478
2024-04-18T06:21:22.970Z,0.5745
2024-04-18T06:22:26.633Z,0.4356
2024-04-18T06:23:30.286Z,0.4356
2024-04-18T06:24:34.133Z,0.5051
2024-04-18T06:25:37.880Z,0.4917
2024-04-18T06:26:41.527Z,0.4757
2024-04-18T06:27:45.321Z,0.4917
2024-04-18T06:28:48.976Z,0.4063
2024-04-18T06:29:52.672Z,0.4196
2024-04-18T06:30:56.391Z,0.5745
2024-04-18T06:32:00.257Z,0.5745
2024-04-18T06:33:04.051Z,0.6600
2024-04-18T06:34:07.977Z,0.6466
2024-04-18T06:35:11.659Z,0.6466
2024-04-18T06:36:15.439Z,0.6039
2024-04-18T06:37:19.038Z,0.6306
2024-04-18T06:38:22.610Z,0.4757
2024-04-18T06:39:27.193Z,0.4623
2024-04-18T06:40:30.834Z,0.4917
2024-04-18T06:41:34.471Z,0.4757
2024-04-18T06:42:38.068Z,0.6466
2024-04-18T06:43:41.830Z,0.5478
2024-04-18T06:44:45.649Z,0.6039
2024-04-18T06:45:49.341Z,0.5611
2024-04-18T06:47:00.385Z,0.6600
2024-04-18T06:48:02.929Z,0.5745
2024-04-18T06:49:06.690Z,0.6172
2024-04-18T06:50:10.317Z,0.6172
2024-04-18T06:51:14.728Z,0.6039
2024-04-18T06:52:18.867Z,0.5879
2024-04-18T06:53:22.507Z,0.6039
2024-04-18T06:54:26.188Z,0.5879
2024-04-18T06:55:29.831Z,0.6600
2024-04-18T06:56:33.485Z,0.6306
2024-04-18T06:57:37.305Z,0.6466
2024-04-18T06:58:42.039Z,0.7027
2024-04-18T06:59:46.233Z,0.5318
2024-04-18T07:00:50.070Z,0.5051
2024-04-18T07:01:53.660Z,0.5318
2024-04-18T07:02:57.276Z,0.5879
2024-04-18T07:04:00.980Z,0.5318
2024-04-18T07:05:04.759Z,0.5184
2024-04-18T07:06:08.472Z,0.5318
2024-04-18T07:07:12.188Z,0.6172
2024-04-18T07:08:15.871Z,0.4623
2024-04-18T07:09:19.527Z,0.4490
2024-04-18T07:10:23.228Z,0.4917
2024-04-18T07:11:26.941Z,0.4063
2024-04-18T07:12:30.872Z,0.3769
2024-04-18T07:13:35.124Z,0.4196
2024-04-18T07:14:39.821Z,0.4757
2024-04-18T07:15:43.564Z,0.5051
2024-04-18T07:16:47.696Z,0.5184
2024-04-18T07:17:51.321Z,0.5051
2024-04-18T07:18:55.368Z,0.5879
2024-04-18T07:19:59.098Z,0.7160
2024-04-18T07:21:02.643Z,0.7027
2024-04-18T07:22:06.290Z,0.7294
2024-04-18T07:23:09.871Z,0.6733
2024-04-18T07:24:13.560Z,0.7988
2024-04-18T07:25:17.211Z,0.7588
2024-04-18T07:26:20.947Z,0.7160
2024-04-18T07:27:24.751Z,0.7027
2024-04-18T07:28:28.877Z,0.6172
2024-04-18T07:29:32.511Z,0.6172
2024-04-18T07:30:36.667Z,0.6733
2024-04-18T07:31:40.260Z,0.7027
2024-04-18T07:32:45.883Z,0.6733
2024-04-18T07:33:49.678Z,0.7988
2024-04-18T07:34:53.441Z,0.8576
2024-04-18T07:35:57.274Z,0.9697
2024-04-18T07:37:00.951Z,0.9964
2024-04-18T07:38:04.584Z,0.9831
2024-04-18T07:39:08.257Z,0.9403
2024-04-18T07:40:12.800Z,0.8976
2024-04-18T07:41:16.445Z,0.9537
2024-04-18T07:42:20.162Z,0.9270
2024-04-18T07:43:23.937Z,0.7721
2024-04-18T07:44:27.634Z,0.7294
2024-04-18T07:45:31.317Z,0.7988
2024-04-18T07:46:34.979Z,0.7988
2024-04-18T07:47:38.724Z,0.7855
2024-04-18T07:48:42.534Z,0.7721
2024-04-18T07:49:49.005Z,0.7427
2024-04-18T07:50:54.181Z,0.7855
2024-04-18T07:51:57.874Z,0.7988
2024-04-18T07:53:09.224Z,0.8576
2024-04-18T07:54:10.952Z,0.7588
2024-04-18T07:55:15.206Z,0.7427
2024-04-18T07:56:19.163Z,0.8282
2024-04-18T07:57:24.315Z,0.8576
2024-04-18T07:58:28.751Z,0.9270
2024-04-18T07:59:33.255Z,0.9270
2024-04-18T08:00:38.210Z,1.0258
2024-04-18T08:01:43.929Z,1.0952
2024-04-18T08:02:50.983Z,1.0391
2024-04-18T08:04:08.059Z,0.9964
2024-04-18T08:05:07.272Z,0.9537
2024-04-18T08:06:14.214Z,0.9537
2024-04-18T08:07:22.323Z,0.8976
2024-04-18T08:08:30.867Z,0.9831
2024-04-18T08:09:40.170Z,0.9270
2024-04-18T08:11:01.019Z,0.9403
2024-04-18T08:12:22.573Z,0.8976
2024-04-18T08:13:08.170Z,0.8843
2024-04-18T08:14:17.301Z,0.9270
2024-04-18T08:16:34.258Z,1.0391
2024-04-18T08:17:38.093Z,1.0391
2024-04-18T08:18:41.856Z,1.0819
2024-04-18T08:19:45.531Z,1.1673
2024-04-18T08:20:49.243Z,1.0685
2024-04-18T08:21:52.824Z,1.1273
2024-04-18T08:22:56.459Z,1.1112
2024-04-18T08:24:00.227Z,1.2261
2024-04-18T08:25:03.922Z,1.3382
2024-04-18T08:26:07.488Z,1.3516
2024-04-18T08:27:11.204Z,1.3943
2024-04-18T08:28:14.868Z,1.3649
2024-04-18T08:29:18.444Z,1.3382
2024-04-18T08:30:22.165Z,1.3783
2024-04-18T08:31:25.839Z,1.3088
2024-04-18T08:32:29.659Z,1.2261
2024-04-18T08:33:33.342Z,1.1112
2024-04-18T08:34:39.381Z,1.1540
2024-04-18T08:35:44.946Z,1.0391
2024-04-18T08:36:48.701Z,1.0819
2024-04-18T08:37:52.404Z,1.1112
2024-04-18T08:38:55.980Z,1.1273
2024-04-18T08:39:59.643Z,1.1833
2024-04-18T08:41:03.194Z,1.1112
2024-04-18T08:42:07.734Z,1.1406
2024-04-18T08:43:11.926Z,1.2394
2024-04-18T08:44:15.507Z,1.2100
2024-04-18T08:45:19.201Z,1.2100
2024-04-18T08:46:22.910Z,1.1967
2024-04-18T08:47:26.680Z,1.1540
2024-04-18T08:48:30.684Z,1.3088
2024-04-18T08:49:34.445Z,1.3382
2024-04-18T08:50:38.438Z,1.3088
2024-04-18T08:51:42.166Z,1.3222
2024-04-18T08:52:45.839Z,1.2955
2024-04-18T08:53:49.594Z,1.3088
2024-04-18T08:54:53.342Z,1.2661
2024-04-18T08:55:57.116Z,1.2955
2024-04-18T08:57:00.809Z,1.3088
2024-04-18T08:58:05.424Z,1.3088
2024-04-18T08:59:09.772Z,1.3943
2024-04-18T09:00:14.373Z,1.4076
2024-04-18T09:01:18.924Z,1.4771
2024-04-18T09:02:22.638Z,1.5198
2024-04-18T09:03:26.270Z,1.5919
2024-04-18T09:04:29.918Z,1.6320
2024-04-18T09:05:34.330Z,1.6186
2024-04-18T09:06:39.014Z,1.6320
2024-04-18T09:07:42.598Z,1.6747
2024-04-18T09:08:46.194Z,1.6747
2024-04-18T09:09:49.776Z,1.7601
2024-04-18T09:10:53.857Z,1.8029
2024-04-18T09:11:57.560Z,1.7601
2024-04-18T09:13:04.275Z,1.8589
2024-04-18T09:14:10.819Z,1.9444
2024-04-18T09:15:29.357Z,1.8162
2024-04-18T09:16:33.182Z,1.8856
2024-04-18T09:17:36.970Z,1.9871
2024-04-18T09:18:41.574Z,2.0432
2024-04-18T09:19:45.264Z,2.1286
2024-04-18T09:20:48.995Z,1.9738
2024-04-18T09:21:52.573Z,2.1420
2024-04-18T09:22:56.270Z,1.9871
2024-04-18T09:23:59.887Z,1.9738
2024-04-18T09:25:03.564Z,2.0859
2024-04-18T09:26:08.757Z,1.9871
2024-04-18T09:27:13.524Z,1.9738
2024-04-18T09:28:17.220Z,2.1286
2024-04-18T09:29:20.875Z,2.0165
2024-04-18T09:30:24.642Z,2.0298
2024-04-18T09:31:35.210Z,2.0859
2024-04-18T09:32:38.028Z,2.1553
2024-04-18T09:33:42.046Z,2.1286
2024-04-18T09:34:45.926Z,2.1981
2024-04-18T09:35:49.613Z,2.2969
2024-04-18T09:36:53.968Z,2.1981
2024-04-18T09:38:04.537Z,2.2675
2024-04-18T09:39:07.145Z,2.2274
2024-04-18T09:40:10.818Z,2.2675
2024-04-18T09:41:14.455Z,2.1981
2024-04-18T09:42:18.106Z,2.3236
2024-04-18T09:43:21.832Z,2.3236
2024-04-18T09:44:30.109Z,2.3529
2024-04-18T09:45:33.877Z,2.3396
2024-04-18T09:46:37.611Z,2.3396
2024-04-18T09:47:41.291Z,2.4784
2024-04-18T09:48:45.150Z,2.5906
2024-04-18T09:49:50.975Z,2.6921
2024-04-18T09:50:55.357Z,2.7348
2024-04-18T09:51:59.424Z,2.6333
2024-04-18T09:53:03.780Z,2.5639
2024-04-18T09:54:07.505Z,2.7348
2024-04-18T09:55:12.268Z,2.7481
2024-04-18T09:56:15.944Z,2.7775
2024-04-18T09:57:19.912Z,2.7642
2024-04-18T09:58:23.660Z,2.8630
2024-04-18T09:59:27.296Z,2.7909
2024-04-18T10:00:31.232Z,2.8202
2024-04-18T10:01:34.972Z,2.9751
2024-04-18T10:02:39.223Z,2.8763
2024-04-18T10:03:42.947Z,2.8336
2024-04-18T10:04:46.685Z,2.8336
2024-04-18T10:05:51.205Z,2.9030
2024-04-18T10:06:54.924Z,2.9324
2024-04-18T10:08:01.136Z,3.0579
2024-04-18T10:09:04.983Z,2.9591
2024-04-18T10:10:08.610Z,2.9190
2024-04-18T10:11:12.297Z,3.0312
2024-04-18T10:12:16.028Z,3.0739
2024-04-18T10:13:21.315Z,3.1567
2024-04-18T10:14:26.438Z,2.8336
2024-04-18T10:15:30.187Z,3.0312
2024-04-18T10:16:33.858Z,3.1140
2024-04-18T10:17:38.051Z,3.2128
2024-04-18T10:18:41.933Z,3.2982
2024-04-18T10:19:45.876Z,3.3116
2024-04-18T10:20:50.303Z,3.3410
2024-04-18T10:22:06.358Z,3.4398
2024-04-18T10:23:09.571Z,3.2689
2024-04-18T10:24:13.458Z,3.3249
2024-04-18T10:25:17.249Z,3.3116
2024-04-18T10:26:20.935Z,3.2555
2024-04-18T10:27:24.747Z,3.4398
2024-04-18T10:28:28.386Z,3.4691
2024-04-18T10:29:32.894Z,3.3970
2024-04-18T10:30:36.636Z,3.2689
2024-04-18T10:31:40.201Z,3.1727
2024-04-18T10:32:43.862Z,3.2422
2024-04-18T10:33:47.572Z,3.2422
2024-04-18T10:34:51.164Z,3.0312
2024-04-18T10:35:54.785Z,3.0873
2024-04-18T10:36:58.372Z,3.1140
2024-04-18T10:38:01.954Z,3.1861
2024-04-18T10:39:05.705Z,3.1300
2024-04-18T10:40:09.234Z,3.0178
2024-04-18T10:41:12.825Z,3.1300
2024-04-18T10:42:16.504Z,3.1140
2024-04-18T10:43:20.883Z,3.1994
2024-04-18T10:44:24.705Z,3.1434
2024-04-18T10:45:28.474Z,3.1994
2024-04-18T10:46:32.192Z,3.3410
2024-04-18T10:47:35.994Z,3.3677
2024-04-18T10:48:39.727Z,3.4104
2024-04-18T10:49:43.406Z,3.3543
2024-04-18T10:50:46.959Z,3.3410
2024-04-18T10:51:50.691Z,3.3410
2024-04-18T10:52:54.822Z,3.2128
2024-04-18T10:53:58.502Z,3.1727
2024-04-18T10:55:02.787Z,3.0739
2024-04-18T10:56:09.333Z,3.1006
2024-04-18T10:57:13.066Z,3.0446
2024-04-18T10:58:17.834Z,3.0873
2024-04-18T10:59:21.554Z,2.9885
2024-04-18T11:00:31.989Z,3.0018
2024-04-18T11:01:36.019Z,3.1006
2024-04-18T11:02:40.209Z,3.1006
2024-04-18T11:03:44.765Z,3.0312
2024-04-18T11:04:48.332Z,3.1006
2024-04-18T11:05:51.980Z,3.0579
2024-04-18T11:06:55.735Z,3.0178
2024-04-18T11:07:59.565Z,2.9751
2024-04-18T11:09:03.257Z,2.9458
2024-04-18T11:10:06.911Z,2.9885
2024-04-18T11:11:10.483Z,3.0178
2024-04-18T11:12:14.116Z,3.0873
2024-04-18T11:13:18.423Z,2.9751
2024-04-18T11:14:22.795Z,3.0178
2024-04-18T11:15:26.527Z,3.0018
2024-04-18T11:16:30.201Z,2.9885
2024-04-18T11:17:33.933Z,2.9591
2024-04-18T11:18:37.735Z,2.9030
2024-04-18T11:19:41.505Z,2.8470
2024-04-18T11:20:45.237Z,2.9591
2024-04-18T11:21:48.910Z,2.9458
2024-04-18T11:22:57.414Z,2.9190
2024-04-18T11:24:02.256Z,2.9030
2024-04-18T11:25:06.090Z,3.0873
2024-04-18T11:26:09.691Z,3.0178
2024-04-18T11:27:13.566Z,3.0873
2024-04-18T11:28:17.259Z,2.9885
2024-04-18T11:29:21.131Z,2.9591
2024-04-18T11:30:24.681Z,3.0312
2024-04-18T11:31:28.298Z,3.0178
2024-04-18T11:32:33.496Z,3.0446
2024-04-18T11:33:37.441Z,2.9591
2024-04-18T11:34:41.054Z,2.9751
2024-04-18T11:35:44.674Z,2.9885
2024-04-18T11:36:48.319Z,3.0446
2024-04-18T11:37:52.112Z,3.0579
2024-04-18T11:38:56.886Z,3.0579
2024-04-18T11:40:01.376Z,3.1140
2024-04-18T11:41:05.099Z,3.1300
2024-04-18T11:42:08.795Z,3.0579
2024-04-18T11:43:13.332Z,3.1300
2024-04-18T11:44:17.078Z,3.0312
2024-04-18T11:45:21.071Z,2.9751
2024-04-18T11:46:24.766Z,2.9751
2024-04-18T11:47:28.591Z,2.9190
2024-04-18T11:48:32.568Z,2.7642
2024-04-18T11:49:38.220Z,2.7909
2024-04-18T11:50:42.795Z,2.6333
2024-04-18T11:51:46.590Z,2.6627
2024-04-18T11:52:50.289Z,2.6627
2024-04-18T11:53:54.062Z,2.5345
2024-04-18T11:54:58.238Z,2.4224
2024-04-18T11:56:04.272Z,2.4651
2024-04-18T11:57:08.839Z,2.5505
2024-04-18T11:58:14.446Z,2.5639
2024-04-18T11:59:18.452Z,2.5505
2024-04-18T12:00:22.151Z,2.5078
2024-04-18T12:01:25.906Z,2.5212
2024-04-18T12:02:30.321Z,2.6493
2024-04-18T12:03:34.033Z,2.6493
2024-04-18T12:04:39.218Z,2.8336
2024-04-18T12:05:44.253Z,2.6760
2024-04-18T12:06:47.942Z,2.7775
2024-04-18T12:07:51.638Z,3.0579
2024-04-18T12:08:55.974Z,3.0579
2024-04-18T12:10:00.381Z,3.1140
2024-04-18T12:11:04.194Z,3.1300
2024-04-18T12:12:07.967Z,3.2555
2024-04-18T12:13:11.770Z,3.3249
2024-04-18T12:14:15.490Z,3.4398
2024-04-18T12:15:19.300Z,3.5546
2024-04-18T12:16:23.117Z,3.5973
2024-04-18T12:17:26.886Z,3.3677
2024-04-18T12:18:30.610Z,3.5813
2024-04-18T12:19:34.144Z,3.4398
2024-04-18T12:21:07.303Z,3.8216
2024-04-18T12:22:11.055Z,3.8911
2024-04-18T12:23:14.877Z,3.7228
2024-04-18T12:24:18.555Z,3.6934
2024-04-18T12:25:22.925Z,3.8083
2024-04-18T12:26:26.496Z,3.8483
2024-04-18T12:27:30.160Z,3.9471
2024-04-18T12:28:33.749Z,3.9044
2024-04-18T12:29:37.458Z,4.0459
2024-04-18T12:30:41.056Z,4.1447
2024-04-18T12:31:44.714Z,4.2889
2024-04-18T12:32:48.403Z,4.2435
2024-04-18T12:33:52.085Z,4.7509
2024-04-18T12:34:55.634Z,4.5560
2024-04-18T12:35:59.830Z,4.4839
2024-04-18T12:37:03.367Z,4.4999
2024-04-18T12:38:06.913Z,4.3156
2024-04-18T12:39:10.522Z,4.3877
2024-04-18T12:40:14.177Z,4.4144
2024-04-18T12:41:17.782Z,4.3023
2024-04-18T12:42:21.372Z,4.5266
2024-04-18T12:43:24.993Z,4.6948
2024-04-18T12:44:30.024Z,4.4144
2024-04-18T12:45:36.471Z,4.5987
2024-04-18T12:46:40.292Z,4.9645
2024-04-18T12:47:44.449Z,4.9485
2024-04-18T12:48:48.513Z,5.9525
2024-04-18T12:49:52.671Z,6.0513
2024-04-18T12:50:57.398Z,5.6695
2024-04-18T12:52:01.099Z,5.4719
2024-04-18T12:53:04.732Z,5.4852
2024-04-18T12:54:08.437Z,5.4719
2024-04-18T12:55:13.154Z,5.7256
2024-04-18T12:56:16.798Z,5.9819
2024-04-18T12:57:20.548Z,5.9258
2024-04-18T12:58:24.090Z,5.9098
2024-04-18T12:59:27.794Z,5.5707
2024-04-18T13:00:33.413Z,5.4852
2024-04-18T13:01:37.233Z,5.6401
2024-04-18T13:02:41.395Z,5.6561
2024-04-18T13:03:45.378Z,5.6001
2024-04-18T13:04:49.134Z,5.3464
2024-04-18T13:05:52.953Z,5.4025
2024-04-18T13:06:56.498Z,5.3597
2024-04-18T13:08:00.097Z,5.6401
2024-04-18T13:09:03.737Z,5.6695
2024-04-18T13:10:07.340Z,6.0513
2024-04-18T13:11:11.037Z,5.9392
2024-04-18T13:12:14.654Z,6.0246
2024-04-18T13:13:18.329Z,6.0647
2024-04-18T13:14:21.952Z,6.0807
2024-04-18T13:15:25.623Z,6.2757
2024-04-18T13:16:29.440Z,6.4038
2024-04-18T13:17:33.091Z,6.1929
2024-04-18T13:18:36.928Z,5.9098
2024-04-18T13:19:40.668Z,5.5840
2024-04-18T13:20:44.384Z,5.4852